createdAt,value
2022-08-01T00:02:22.901Z,28
2022-08-01T00:07:41.195Z,28
2022-08-01T00:12:59.696Z,27.9
2022-08-01T00:18:18.451Z,27.9
2022-08-01T00:23:36.930Z,27.9
2022-08-01T00:28:55.686Z,27.9
2022-08-01T00:34:14.461Z,27.9
2022-08-01T00:39:32.941Z,27.9
2022-08-01T00:44:51.695Z,27.9
2022-08-01T00:50:10.446Z,27.9
2022-08-01T00:55:28.946Z,27.9
2022-08-01T01:00:54.775Z,27.9
2022-08-01T01:06:13.623Z,27.8
2022-08-01T01:11:32.377Z,27.9
2022-08-01T01:16:51.126Z,27.9
2022-08-01T01:22:09.605Z,27.8
2022-08-01T01:27:28.366Z,27.8
2022-08-01T01:32:47.132Z,27.8
2022-08-01T01:38:05.617Z,27.9
2022-08-01T01:43:33.847Z,27.9
2022-08-01T01:48:52.207Z,28
2022-08-01T01:54:10.153Z,28
2022-08-01T01:59:28.359Z,28.1
2022-08-01T02:04:46.829Z,28
2022-08-01T02:10:05.600Z,28
2022-08-01T02:15:24.362Z,28
2022-08-01T02:20:43.123Z,27.9
2022-08-01T02:26:11.726Z,27.9
2022-08-01T02:31:30.538Z,27.9
2022-08-01T02:36:49.295Z,27.9
2022-08-01T02:42:08.882Z,27.9
2022-08-01T02:47:27.367Z,27.9
2022-08-01T02:52:45.278Z,27.9
2022-08-01T02:58:04.454Z,27.8
2022-08-01T03:03:22.382Z,27.8
2022-08-01T03:08:40.580Z,27.8
2022-08-01T03:13:59.061Z,27.9
2022-08-01T03:19:17.829Z,27.8
2022-08-01T03:24:36.589Z,27.8
2022-08-01T03:29:55.339Z,27.7
2022-08-01T03:35:13.830Z,27.7
2022-08-01T03:40:32.311Z,27.8
2022-08-01T03:45:50.508Z,27.9
2022-08-01T03:51:09.278Z,28
2022-08-01T03:56:27.753Z,28
2022-08-01T04:01:46.089Z,28
2022-08-01T04:07:04.602Z,28
2022-08-01T04:12:23.097Z,28
2022-08-01T04:17:41.615Z,28
2022-08-01T04:23:00.100Z,28
2022-08-01T04:28:18.862Z,27.9
2022-08-01T04:33:37.061Z,27.8
2022-08-01T04:38:55.261Z,27.8
2022-08-01T04:44:13.738Z,27.9
2022-08-01T04:49:48.826Z,27.8
2022-08-01T04:55:07.487Z,27.7
2022-08-01T05:00:25.683Z,27.7
2022-08-01T05:05:43.875Z,27.6
2022-08-01T05:11:02.040Z,27.5
2022-08-01T05:16:20.764Z,27.5
2022-08-01T05:21:38.689Z,27.5
2022-08-01T05:26:57.453Z,27.5
2022-08-01T05:32:16.210Z,27.4
2022-08-01T05:37:36.008Z,27.4
2022-08-01T05:42:56.391Z,27.4
2022-08-01T05:48:14.866Z,27.4
2022-08-01T05:53:33.070Z,27.4
2022-08-01T05:58:51.555Z,27.3
2022-08-01T06:04:10.033Z,27.3
2022-08-01T06:09:28.853Z,27.4
2022-08-01T06:14:47.287Z,27.4
2022-08-01T06:20:06.044Z,27.3
2022-08-01T06:25:24.853Z,27.3
2022-08-01T06:30:43.045Z,27.3
2022-08-01T06:36:01.520Z,27.3
2022-08-01T06:41:19.728Z,27.2
2022-08-01T06:46:37.912Z,27.2
2022-08-01T06:51:56.666Z,27.2
2022-08-01T06:56:59.531Z,27.2
2022-08-01T07:02:18.011Z,27.2
2022-08-01T07:07:36.210Z,27.2
2022-08-01T07:12:54.690Z,27.2
2022-08-01T07:18:13.165Z,27.2
2022-08-01T07:23:37.064Z,27.2
2022-08-01T07:29:03.794Z,27.2
2022-08-01T07:34:22.532Z,27.2
2022-08-01T07:39:41.015Z,27.2
2022-08-01T07:44:59.790Z,27.2
2022-08-01T07:50:18.265Z,27.2
2022-08-01T07:55:37.028Z,27.2
2022-08-01T08:00:40.173Z,27.2
2022-08-01T08:06:00.708Z,27.2
2022-08-01T08:11:18.648Z,27.1
2022-08-01T08:16:37.421Z,27.1
2022-08-01T08:21:55.902Z,27.1
2022-08-01T08:27:14.655Z,27.2
2022-08-01T08:32:33.425Z,27.1
2022-08-01T08:37:58.188Z,27.2
2022-08-01T08:43:17.998Z,27.2
2022-08-01T08:48:36.337Z,27.1
2022-08-01T08:53:54.536Z,27.2
2022-08-01T08:59:12.730Z,27.2
2022-08-01T09:04:31.502Z,27.2
2022-08-01T09:09:51.506Z,27.2
2022-08-01T09:15:10.141Z,27.2
2022-08-01T09:20:28.342Z,27.2
2022-08-01T09:25:48.063Z,27.2
2022-08-01T09:31:08.676Z,27.2
2022-08-01T09:36:27.930Z,27.2
2022-08-01T09:41:49.235Z,27.2
2022-08-01T09:47:08.529Z,27.2
2022-08-01T09:52:29.580Z,27.2
2022-08-01T09:57:47.771Z,27.3
2022-08-01T10:03:10.742Z,27.3
2022-08-01T10:08:30.671Z,27.3
2022-08-01T10:13:50.032Z,27.3
2022-08-01T10:19:15.590Z,27.3
2022-08-01T10:24:35.447Z,27.3
2022-08-01T10:30:15.405Z,27.3
2022-08-01T10:35:48.378Z,27.4
2022-08-01T10:41:09.436Z,27.4
2022-08-01T10:46:28.199Z,27.4
2022-08-01T10:51:54.996Z,27.4
2022-08-01T10:57:15.844Z,27.4
2022-08-01T11:02:35.641Z,27.4
2022-08-01T11:07:54.099Z,27.4
2022-08-01T11:13:14.067Z,27.4
2022-08-01T11:18:32.553Z,27.4
2022-08-01T11:23:51.317Z,27.4
2022-08-01T11:29:22.256Z,27.5
2022-08-01T11:34:41.370Z,27.4
2022-08-01T11:39:59.604Z,27.5
2022-08-01T11:45:19.483Z,27.5
2022-08-01T11:50:37.894Z,27.5
2022-08-01T11:55:57.492Z,27.5
2022-08-01T12:01:15.411Z,27.5
2022-08-01T12:06:34.530Z,27.5
2022-08-01T12:11:53.296Z,27.5
2022-08-01T12:17:12.057Z,27.5
2022-08-01T12:22:30.528Z,27.5
2022-08-01T12:27:56.184Z,27.6
2022-08-01T12:33:14.837Z,27.6
2022-08-01T12:38:33.609Z,27.6
2022-08-01T12:43:52.359Z,27.6
2022-08-01T12:49:10.951Z,27.6
2022-08-01T12:54:29.452Z,27.6
2022-08-01T12:59:48.225Z,27.6
2022-08-01T13:05:06.701Z,27.6
2022-08-01T13:10:25.480Z,27.7
2022-08-01T13:15:44.304Z,27.7
2022-08-01T13:21:03.506Z,27.7
2022-08-01T13:26:28.572Z,27.7
2022-08-01T13:31:49.133Z,27.8
2022-08-01T13:37:08.477Z,27.8
2022-08-01T13:42:27.235Z,27.8
2022-08-01T13:48:18.637Z,27.8
2022-08-01T13:53:43.425Z,27.8
2022-08-01T13:59:02.190Z,27.9
2022-08-01T14:04:20.963Z,27.9
2022-08-01T14:10:18.197Z,27.9
2022-08-01T14:15:40.151Z,27.9
2022-08-01T14:21:06.229Z,27.9
2022-08-01T14:26:24.716Z,27.9
2022-08-01T14:31:43.187Z,27.9
2022-08-01T14:37:03.012Z,28
2022-08-01T14:42:22.013Z,28
2022-08-01T14:47:40.501Z,28
2022-08-01T14:52:59.259Z,28
2022-08-01T14:58:17.473Z,28
2022-08-01T15:03:35.957Z,28
2022-08-01T15:08:54.727Z,28
2022-08-01T15:14:13.197Z,28
2022-08-01T15:19:31.685Z,28.1
2022-08-01T15:24:57.539Z,28
2022-08-01T15:30:16.171Z,28.1
2022-08-01T15:35:34.102Z,28.1
2022-08-01T15:40:52.309Z,28.1
2022-08-01T15:46:10.788Z,28.1
2022-08-01T15:51:29.232Z,28.1
2022-08-01T15:56:47.953Z,28.1
2022-08-01T16:02:07.078Z,28.1
2022-08-01T16:07:26.008Z,28.1
2022-08-01T16:12:44.489Z,28.1
2022-08-01T16:18:02.693Z,28.1
2022-08-01T16:23:21.455Z,28.2
2022-08-01T16:28:39.957Z,28.2
2022-08-01T16:34:05.604Z,28.2
2022-08-01T16:39:24.321Z,28.2
2022-08-01T16:44:43.073Z,28.2
2022-08-01T16:50:01.829Z,28.2
2022-08-01T16:55:20.602Z,28.2
2022-08-01T17:00:39.366Z,28.2
2022-08-01T17:05:57.858Z,28.2
2022-08-01T17:11:16.329Z,28.1
2022-08-01T17:16:34.558Z,28.1
2022-08-01T17:21:53.076Z,28.1
2022-08-01T17:27:14.034Z,28.1
2022-08-01T17:32:32.901Z,28.1
2022-08-01T17:37:51.381Z,28.1
2022-08-01T17:43:09.861Z,28
2022-08-01T17:48:28.614Z,28
2022-08-01T17:53:58.036Z,28
2022-08-01T17:59:16.553Z,28
2022-08-01T18:04:44.109Z,28
2022-08-01T18:10:02.816Z,28
2022-08-01T18:15:27.208Z,28
2022-08-01T18:20:45.927Z,28
2022-08-01T18:26:04.415Z,28
2022-08-01T18:31:22.891Z,28
2022-08-01T18:36:42.204Z,28
2022-08-01T18:42:03.514Z,28
2022-08-01T18:47:21.991Z,28
2022-08-01T18:52:40.748Z,28
2022-08-01T18:57:43.880Z,28
2022-08-01T19:03:02.105Z,28
2022-08-01T19:08:08.343Z,28
2022-08-01T19:13:27.208Z,28
2022-08-01T19:18:30.079Z,28
2022-08-01T19:23:48.567Z,27.9
2022-08-01T19:29:07.282Z,28
2022-08-01T19:34:27.007Z,28
2022-08-01T19:39:45.199Z,28
2022-08-01T19:45:03.664Z,28
2022-08-01T19:50:22.422Z,28
2022-08-01T19:55:40.895Z,28
2022-08-01T20:00:59.116Z,28
2022-08-01T20:06:17.875Z,28
2022-08-01T20:11:36.352Z,28
2022-08-01T20:16:54.560Z,28
2022-08-01T20:22:13.024Z,28
2022-08-01T20:27:31.462Z,28
2022-08-01T20:32:49.386Z,28
2022-08-01T20:38:07.600Z,28
2022-08-01T20:43:29.482Z,27.9
2022-08-01T20:48:48.225Z,27.9
2022-08-01T20:54:06.840Z,27.9
2022-08-01T20:59:57.371Z,27.9
2022-08-01T21:05:16.274Z,27.8
2022-08-01T21:10:34.745Z,27.8
2022-08-01T21:16:25.215Z,27.8
2022-08-01T21:21:43.749Z,27.8
2022-08-01T21:27:02.515Z,27.8
2022-08-01T21:32:20.991Z,27.8
2022-08-01T21:37:39.801Z,27.8
2022-08-01T21:42:58.255Z,27.9
2022-08-01T21:48:26.844Z,27.9
2022-08-01T21:53:49.073Z,27.9
2022-08-01T21:59:07.282Z,27.9
2022-08-01T22:04:25.482Z,27.9
2022-08-01T22:09:43.681Z,28
2022-08-01T22:15:01.890Z,27.9
2022-08-01T22:20:20.370Z,27.9
2022-08-01T22:25:39.121Z,27.9
2022-08-01T22:30:57.614Z,27.9
2022-08-01T22:36:16.085Z,27.9
2022-08-01T22:42:02.641Z,27.9
2022-08-01T22:47:20.914Z,27.9
2022-08-01T22:52:39.684Z,27.9
2022-08-01T22:57:58.446Z,27.8
2022-08-01T23:03:16.936Z,27.9
2022-08-01T23:08:35.700Z,27.9
2022-08-01T23:13:54.197Z,28
2022-08-01T23:19:13.200Z,28
2022-08-01T23:24:31.982Z,28
2022-08-01T23:29:50.739Z,28
2022-08-01T23:35:09.504Z,28
2022-08-01T23:40:28.274Z,28
2022-08-01T23:46:05.628Z,28
2022-08-01T23:51:25.198Z,28
2022-08-01T23:56:43.690Z,28.1
